sensor_id;sensor_type;location;lat;lon;timestamp;temperature;humidity
47861;HTU21D;33620;52.340;5.984;2023-08-17T00:02:00;19.00;73.57
47861;HTU21D;33620;52.340;5.984;2023-08-17T00:04:25;18.98;73.67
47861;HTU21D;33620;52.340;5.984;2023-08-17T00:06:51;18.96;73.58
47861;HTU21D;33620;52.340;5.984;2023-08-17T00:09:16;18.95;73.61
47861;HTU21D;33620;52.340;5.984;2023-08-17T00:11:41;18.91;73.62
47861;HTU21D;33620;52.340;5.984;2023-08-17T00:14:07;18.91;73.78
47861;HTU21D;33620;52.340;5.984;2023-08-17T00:16:32;18.89;73.73
47861;HTU21D;33620;52.340;5.984;2023-08-17T00:18:58;18.87;73.64
47861;HTU21D;33620;52.340;5.984;2023-08-17T00:21:23;18.86;73.69
47861;HTU21D;33620;52.340;5.984;2023-08-17T00:23:49;18.78;73.73
47861;HTU21D;33620;52.340;5.984;2023-08-17T00:26:14;18.78;73.79
47861;HTU21D;33620;52.340;5.984;2023-08-17T00:28:40;18.78;73.67
47861;HTU21D;33620;52.340;5.984;2023-08-17T00:31:05;18.78;73.77
47861;HTU21D;33620;52.340;5.984;2023-08-17T00:33:31;18.77;73.92
47861;HTU21D;33620;52.340;5.984;2023-08-17T00:35:56;18.79;73.88
47861;HTU21D;33620;52.340;5.984;2023-08-17T00:38:22;18.78;73.80
47861;HTU21D;33620;52.340;5.984;2023-08-17T00:40:47;18.79;73.77
47861;HTU21D;33620;52.340;5.984;2023-08-17T00:43:13;18.79;73.71
47861;HTU21D;33620;52.340;5.984;2023-08-17T00:45:39;18.71;73.75
47861;HTU21D;33620;52.340;5.984;2023-08-17T00:48:06;18.70;73.95
47861;HTU21D;33620;52.340;5.984;2023-08-17T00:50:34;18.69;74.08
47861;HTU21D;33620;52.340;5.984;2023-08-17T00:53:00;18.65;74.09
47861;HTU21D;33620;52.340;5.984;2023-08-17T00:55:26;18.63;74.30
47861;HTU21D;33620;52.340;5.984;2023-08-17T00:57:53;18.63;74.42
47861;HTU21D;33620;52.340;5.984;2023-08-17T01:00:19;18.62;74.22
47861;HTU21D;33620;52.340;5.984;2023-08-17T01:02:46;18.63;74.53
47861;HTU21D;33620;52.340;5.984;2023-08-17T01:05:12;18.59;74.29
47861;HTU21D;33620;52.340;5.984;2023-08-17T01:07:38;18.61;74.44
47861;HTU21D;33620;52.340;5.984;2023-08-17T01:10:06;18.56;74.57
47861;HTU21D;33620;52.340;5.984;2023-08-17T01:12:36;18.54;74.68
47861;HTU21D;33620;52.340;5.984;2023-08-17T01:15:40;18.56;74.92
47861;HTU21D;33620;52.340;5.984;2023-08-17T01:20:40;18.59;74.72
47861;HTU21D;33620;52.340;5.984;2023-08-17T01:23:06;18.59;74.50
47861;HTU21D;33620;52.340;5.984;2023-08-17T01:25:32;18.58;74.78
47861;HTU21D;33620;52.340;5.984;2023-08-17T01:28:02;18.56;74.61
47861;HTU21D;33620;52.340;5.984;2023-08-17T01:30:28;18.52;74.67
47861;HTU21D;33620;52.340;5.984;2023-08-17T01:33:02;18.53;74.88
47861;HTU21D;33620;52.340;5.984;2023-08-17T01:35:30;18.51;74.93
47861;HTU21D;33620;52.340;5.984;2023-08-17T01:38:06;18.49;74.93
47861;HTU21D;33620;52.340;5.984;2023-08-17T01:40:32;18.47;74.97
47861;HTU21D;33620;52.340;5.984;2023-08-17T01:42:59;18.44;75.12
47861;HTU21D;33620;52.340;5.984;2023-08-17T01:45:25;18.46;75.32
47861;HTU21D;33620;52.340;5.984;2023-08-17T01:47:50;18.49;75.30
47861;HTU21D;33620;52.340;5.984;2023-08-17T01:50:16;18.50;74.98
47861;HTU21D;33620;52.340;5.984;2023-08-17T01:52:41;18.49;75.03
47861;HTU21D;33620;52.340;5.984;2023-08-17T01:55:07;18.52;74.86
47861;HTU21D;33620;52.340;5.984;2023-08-17T01:57:33;18.51;74.81
47861;HTU21D;33620;52.340;5.984;2023-08-17T02:00:00;18.51;74.76
47861;HTU21D;33620;52.340;5.984;2023-08-17T02:02:25;18.49;74.96
47861;HTU21D;33620;52.340;5.984;2023-08-17T02:04:50;18.48;75.02
47861;HTU21D;33620;52.340;5.984;2023-08-17T02:07:16;18.49;74.89
47861;HTU21D;33620;52.340;5.984;2023-08-17T02:09:41;18.48;75.00
47861;HTU21D;33620;52.340;5.984;2023-08-17T02:12:06;18.51;74.88
47861;HTU21D;33620;52.340;5.984;2023-08-17T02:14:33;18.49;74.92
47861;HTU21D;33620;52.340;5.984;2023-08-17T02:16:59;18.50;74.92
47861;HTU21D;33620;52.340;5.984;2023-08-17T02:19:24;18.51;74.73
47861;HTU21D;33620;52.340;5.984;2023-08-17T02:21:49;18.51;74.83
47861;HTU21D;33620;52.340;5.984;2023-08-17T02:24:15;18.48;74.73
47861;HTU21D;33620;52.340;5.984;2023-08-17T02:26:40;18.49;74.65
47861;HTU21D;33620;52.340;5.984;2023-08-17T02:29:06;18.44;74.93
47861;HTU21D;33620;52.340;5.984;2023-08-17T02:31:31;18.44;75.02
47861;HTU21D;33620;52.340;5.984;2023-08-17T02:33:56;18.43;75.23
47861;HTU21D;33620;52.340;5.984;2023-08-17T02:36:26;18.46;74.96
47861;HTU21D;33620;52.340;5.984;2023-08-17T02:38:52;18.47;75.01
47861;HTU21D;33620;52.340;5.984;2023-08-17T02:41:18;18.44;75.27
47861;HTU21D;33620;52.340;5.984;2023-08-17T02:43:43;18.44;75.13
47861;HTU21D;33620;52.340;5.984;2023-08-17T02:46:09;18.42;75.09
47861;HTU21D;33620;52.340;5.984;2023-08-17T02:48:34;18.38;75.20
47861;HTU21D;33620;52.340;5.984;2023-08-17T02:51:00;18.37;75.42
47861;HTU21D;33620;52.340;5.984;2023-08-17T02:53:25;18.34;75.39
47861;HTU21D;33620;52.340;5.984;2023-08-17T02:55:51;18.36;75.45
47861;HTU21D;33620;52.340;5.984;2023-08-17T02:58:16;18.34;75.26
47861;HTU21D;33620;52.340;5.984;2023-08-17T03:00:42;18.33;75.46
47861;HTU21D;33620;52.340;5.984;2023-08-17T03:03:07;18.33;75.58
47861;HTU21D;33620;52.340;5.984;2023-08-17T03:05:33;18.32;75.60
47861;HTU21D;33620;52.340;5.984;2023-08-17T03:07:58;18.28;75.70
47861;HTU21D;33620;52.340;5.984;2023-08-17T03:10:24;18.32;75.61
47861;HTU21D;33620;52.340;5.984;2023-08-17T03:12:50;18.33;75.63
47861;HTU21D;33620;52.340;5.984;2023-08-17T03:15:16;18.30;75.44
47861;HTU21D;33620;52.340;5.984;2023-08-17T03:17:41;18.28;75.47
47861;HTU21D;33620;52.340;5.984;2023-08-17T03:20:07;18.24;75.63
47861;HTU21D;33620;52.340;5.984;2023-08-17T03:22:33;18.27;75.58
47861;HTU21D;33620;52.340;5.984;2023-08-17T03:24:59;18.27;75.57
47861;HTU21D;33620;52.340;5.984;2023-08-17T03:27:24;18.29;75.41
47861;HTU21D;33620;52.340;5.984;2023-08-17T03:29:50;18.28;75.50
47861;HTU21D;33620;52.340;5.984;2023-08-17T03:32:16;18.22;75.52
47861;HTU21D;33620;52.340;5.984;2023-08-17T03:34:41;18.24;75.72
47861;HTU21D;33620;52.340;5.984;2023-08-17T03:37:07;18.25;75.63
47861;HTU21D;33620;52.340;5.984;2023-08-17T03:39:32;18.25;75.76
47861;HTU21D;33620;52.340;5.984;2023-08-17T03:41:58;18.27;75.69
47861;HTU21D;33620;52.340;5.984;2023-08-17T03:44:23;18.28;75.51
47861;HTU21D;33620;52.340;5.984;2023-08-17T03:46:48;18.25;75.34
47861;HTU21D;33620;52.340;5.984;2023-08-17T03:49:14;18.25;75.47
47861;HTU21D;33620;52.340;5.984;2023-08-17T03:51:39;18.25;75.54
47861;HTU21D;33620;52.340;5.984;2023-08-17T03:54:05;18.27;75.41
47861;HTU21D;33620;52.340;5.984;2023-08-17T03:56:30;18.28;75.28
47861;HTU21D;33620;52.340;5.984;2023-08-17T03:58:56;18.28;75.26
47861;HTU21D;33620;52.340;5.984;2023-08-17T04:01:21;18.27;75.27
47861;HTU21D;33620;52.340;5.984;2023-08-17T04:03:47;18.24;75.52
47861;HTU21D;33620;52.340;5.984;2023-08-17T04:06:12;18.26;75.38
47861;HTU21D;33620;52.340;5.984;2023-08-17T04:08:38;18.25;75.34
47861;HTU21D;33620;52.340;5.984;2023-08-17T04:11:04;18.26;75.31
47861;HTU21D;33620;52.340;5.984;2023-08-17T04:13:30;18.25;75.33
47861;HTU21D;33620;52.340;5.984;2023-08-17T04:15:56;18.19;75.54
47861;HTU21D;33620;52.340;5.984;2023-08-17T04:18:21;18.19;75.60
47861;HTU21D;33620;52.340;5.984;2023-08-17T04:20:47;18.18;75.73
47861;HTU21D;33620;52.340;5.984;2023-08-17T04:23:12;18.17;75.57
47861;HTU21D;33620;52.340;5.984;2023-08-17T04:25:38;18.12;75.74
47861;HTU21D;33620;52.340;5.984;2023-08-17T04:28:03;18.12;75.93
47861;HTU21D;33620;52.340;5.984;2023-08-17T04:30:29;18.09;76.02
47861;HTU21D;33620;52.340;5.984;2023-08-17T04:32:54;18.10;76.12
47861;HTU21D;33620;52.340;5.984;2023-08-17T04:35:20;18.09;76.12
47861;HTU21D;33620;52.340;5.984;2023-08-17T04:37:46;18.10;76.18
47861;HTU21D;33620;52.340;5.984;2023-08-17T04:40:12;18.09;76.14
47861;HTU21D;33620;52.340;5.984;2023-08-17T04:42:38;18.10;76.25
47861;HTU21D;33620;52.340;5.984;2023-08-17T04:45:03;18.07;76.48
47861;HTU21D;33620;52.340;5.984;2023-08-17T04:47:29;18.07;76.49
47861;HTU21D;33620;52.340;5.984;2023-08-17T04:49:57;18.04;76.63
47861;HTU21D;33620;52.340;5.984;2023-08-17T04:52:22;18.02;76.86
47861;HTU21D;33620;52.340;5.984;2023-08-17T04:54:48;18.04;76.98
47861;HTU21D;33620;52.340;5.984;2023-08-17T04:57:13;18.05;76.82
47861;HTU21D;33620;52.340;5.984;2023-08-17T04:59:40;18.06;76.80
47861;HTU21D;33620;52.340;5.984;2023-08-17T05:02:05;18.05;76.95
47861;HTU21D;33620;52.340;5.984;2023-08-17T05:04:31;18.02;77.10
47861;HTU21D;33620;52.340;5.984;2023-08-17T05:06:56;18.00;77.07
47861;HTU21D;33620;52.340;5.984;2023-08-17T05:09:22;17.99;77.08
47861;HTU21D;33620;52.340;5.984;2023-08-17T05:11:47;17.96;77.33
47861;HTU21D;33620;52.340;5.984;2023-08-17T05:14:13;17.97;77.44
47861;HTU21D;33620;52.340;5.984;2023-08-17T05:16:38;17.98;77.43
47861;HTU21D;33620;52.340;5.984;2023-08-17T05:19:04;17.96;77.31
47861;HTU21D;33620;52.340;5.984;2023-08-17T05:21:29;17.94;77.60
47861;HTU21D;33620;52.340;5.984;2023-08-17T05:23:55;17.95;77.64
47861;HTU21D;33620;52.340;5.984;2023-08-17T05:26:21;17.95;77.55
47861;HTU21D;33620;52.340;5.984;2023-08-17T05:28:46;17.91;77.79
47861;HTU21D;33620;52.340;5.984;2023-08-17T05:31:12;17.91;77.98
47861;HTU21D;33620;52.340;5.984;2023-08-17T05:33:37;17.93;78.09
47861;HTU21D;33620;52.340;5.984;2023-08-17T05:36:06;17.91;78.05
47861;HTU21D;33620;52.340;5.984;2023-08-17T05:38:31;17.93;78.18
47861;HTU21D;33620;52.340;5.984;2023-08-17T05:40:57;17.94;78.12
47861;HTU21D;33620;52.340;5.984;2023-08-17T05:43:24;17.96;78.18
47861;HTU21D;33620;52.340;5.984;2023-08-17T05:45:49;17.98;78.30
47861;HTU21D;33620;52.340;5.984;2023-08-17T05:48:15;17.96;78.17
47861;HTU21D;33620;52.340;5.984;2023-08-17T05:50:41;17.96;78.32
47861;HTU21D;33620;52.340;5.984;2023-08-17T05:53:07;17.93;78.46
47861;HTU21D;33620;52.340;5.984;2023-08-17T05:55:32;17.94;78.48
47861;HTU21D;33620;52.340;5.984;2023-08-17T05:57:58;17.94;78.47
47861;HTU21D;33620;52.340;5.984;2023-08-17T06:00:23;17.93;78.59
47861;HTU21D;33620;52.340;5.984;2023-08-17T06:02:49;17.93;78.69
47861;HTU21D;33620;52.340;5.984;2023-08-17T06:05:17;17.90;78.69
47861;HTU21D;33620;52.340;5.984;2023-08-17T06:07:42;17.90;78.88
47861;HTU21D;33620;52.340;5.984;2023-08-17T06:10:09;17.90;79.11
47861;HTU21D;33620;52.340;5.984;2023-08-17T06:12:34;17.90;78.95
47861;HTU21D;33620;52.340;5.984;2023-08-17T06:15:02;17.91;79.02
47861;HTU21D;33620;52.340;5.984;2023-08-17T06:17:28;17.93;78.94
47861;HTU21D;33620;52.340;5.984;2023-08-17T06:19:53;17.97;78.94
47861;HTU21D;33620;52.340;5.984;2023-08-17T06:22:19;17.97;79.05
47861;HTU21D;33620;52.340;5.984;2023-08-17T06:24:44;17.99;78.68
47861;HTU21D;33620;52.340;5.984;2023-08-17T06:27:14;18.02;79.08
47861;HTU21D;33620;52.340;5.984;2023-08-17T06:29:40;18.07;79.07
47861;HTU21D;33620;52.340;5.984;2023-08-17T06:32:06;18.13;78.69
47861;HTU21D;33620;52.340;5.984;2023-08-17T06:34:31;18.13;78.41
47861;HTU21D;33620;52.340;5.984;2023-08-17T06:37:02;18.18;78.49
47861;HTU21D;33620;52.340;5.984;2023-08-17T06:39:28;18.23;78.35
47861;HTU21D;33620;52.340;5.984;2023-08-17T06:41:54;18.30;78.31
47861;HTU21D;33620;52.340;5.984;2023-08-17T06:44:20;18.35;78.59
47861;HTU21D;33620;52.340;5.984;2023-08-17T06:46:45;18.39;78.43
47861;HTU21D;33620;52.340;5.984;2023-08-17T06:49:11;18.42;77.90
47861;HTU21D;33620;52.340;5.984;2023-08-17T06:51:37;18.43;77.82
47861;HTU21D;33620;52.340;5.984;2023-08-17T06:54:03;18.47;77.76
47861;HTU21D;33620;52.340;5.984;2023-08-17T06:56:29;18.47;77.70
47861;HTU21D;33620;52.340;5.984;2023-08-17T06:58:54;18.47;77.72
47861;HTU21D;33620;52.340;5.984;2023-08-17T07:01:19;18.50;77.91
47861;HTU21D;33620;52.340;5.984;2023-08-17T07:03:45;18.50;77.79
47861;HTU21D;33620;52.340;5.984;2023-08-17T07:06:10;18.56;77.68
47861;HTU21D;33620;52.340;5.984;2023-08-17T07:08:36;18.56;77.25
47861;HTU21D;33620;52.340;5.984;2023-08-17T07:11:01;18.61;77.27
47861;HTU21D;33620;52.340;5.984;2023-08-17T07:13:28;18.65;77.29
47861;HTU21D;33620;52.340;5.984;2023-08-17T07:15:54;18.68;77.24
47861;HTU21D;33620;52.340;5.984;2023-08-17T07:18:19;18.69;77.31
47861;HTU21D;33620;52.340;5.984;2023-08-17T07:20:45;18.76;77.10
47861;HTU21D;33620;52.340;5.984;2023-08-17T07:23:10;18.78;76.82
47861;HTU21D;33620;52.340;5.984;2023-08-17T07:25:36;18.79;76.70
47861;HTU21D;33620;52.340;5.984;2023-08-17T07:28:01;18.85;76.86
47861;HTU21D;33620;52.340;5.984;2023-08-17T07:30:26;18.92;76.94
47861;HTU21D;33620;52.340;5.984;2023-08-17T07:32:52;18.91;76.63
47861;HTU21D;33620;52.340;5.984;2023-08-17T07:35:18;18.97;76.94
47861;HTU21D;33620;52.340;5.984;2023-08-17T07:37:43;19.00;76.61
47861;HTU21D;33620;52.340;5.984;2023-08-17T07:40:09;18.99;76.60
47861;HTU21D;33620;52.340;5.984;2023-08-17T07:42:34;19.06;76.39
47861;HTU21D;33620;52.340;5.984;2023-08-17T07:45:01;19.09;76.33
47861;HTU21D;33620;52.340;5.984;2023-08-17T07:47:29;19.11;76.12
47861;HTU21D;33620;52.340;5.984;2023-08-17T07:49:55;19.15;76.23
47861;HTU21D;33620;52.340;5.984;2023-08-17T07:52:20;19.18;76.12
47861;HTU21D;33620;52.340;5.984;2023-08-17T07:54:45;19.18;76.10
47861;HTU21D;33620;52.340;5.984;2023-08-17T07:57:11;19.16;76.12
47861;HTU21D;33620;52.340;5.984;2023-08-17T07:59:36;19.16;76.05
47861;HTU21D;33620;52.340;5.984;2023-08-17T08:02:01;19.18;75.94
47861;HTU21D;33620;52.340;5.984;2023-08-17T08:04:27;19.23;76.11
47861;HTU21D;33620;52.340;5.984;2023-08-17T08:06:52;19.23;75.92
47861;HTU21D;33620;52.340;5.984;2023-08-17T08:09:18;19.26;76.17
47861;HTU21D;33620;52.340;5.984;2023-08-17T08:11:43;19.26;75.84
47861;HTU21D;33620;52.340;5.984;2023-08-17T08:14:08;19.26;75.89
47861;HTU21D;33620;52.340;5.984;2023-08-17T08:16:34;19.28;75.99
47861;HTU21D;33620;52.340;5.984;2023-08-17T08:18:59;19.29;75.91
47861;HTU21D;33620;52.340;5.984;2023-08-17T08:21:25;19.39;76.24
47861;HTU21D;33620;52.340;5.984;2023-08-17T08:23:52;19.41;75.92
47861;HTU21D;33620;52.340;5.984;2023-08-17T08:26:17;19.35;75.46
47861;HTU21D;33620;52.340;5.984;2023-08-17T08:28:43;19.35;75.54
47861;HTU21D;33620;52.340;5.984;2023-08-17T08:31:08;19.38;75.50
47861;HTU21D;33620;52.340;5.984;2023-08-17T08:33:34;19.44;75.63
47861;HTU21D;33620;52.340;5.984;2023-08-17T08:35:59;19.45;74.96
47861;HTU21D;33620;52.340;5.984;2023-08-17T08:38:25;19.48;74.90
47861;HTU21D;33620;52.340;5.984;2023-08-17T08:40:50;19.48;74.54
47861;HTU21D;33620;52.340;5.984;2023-08-17T08:43:16;19.51;74.47
47861;HTU21D;33620;52.340;5.984;2023-08-17T08:45:42;19.53;74.58
47861;HTU21D;33620;52.340;5.984;2023-08-17T08:48:11;19.57;74.34
47861;HTU21D;33620;52.340;5.984;2023-08-17T08:50:39;19.61;74.51
47861;HTU21D;33620;52.340;5.984;2023-08-17T08:53:15;19.67;74.56
47861;HTU21D;33620;52.340;5.984;2023-08-17T08:55:51;19.67;74.45
47861;HTU21D;33620;52.340;5.984;2023-08-17T08:58:18;19.68;74.28
47861;HTU21D;33620;52.340;5.984;2023-08-17T09:00:46;19.70;74.56
47861;HTU21D;33620;52.340;5.984;2023-08-17T09:03:12;19.71;74.31
47861;HTU21D;33620;52.340;5.984;2023-08-17T09:05:39;19.70;74.42
47861;HTU21D;33620;52.340;5.984;2023-08-17T09:08:08;19.68;74.45
47861;HTU21D;33620;52.340;5.984;2023-08-17T09:10:34;19.69;74.40
47861;HTU21D;33620;52.340;5.984;2023-08-17T09:12:59;19.69;74.64
47861;HTU21D;33620;52.340;5.984;2023-08-17T09:15:24;19.73;75.01
47861;HTU21D;33620;52.340;5.984;2023-08-17T09:17:50;19.74;74.28
47861;HTU21D;33620;52.340;5.984;2023-08-17T09:23:04;19.85;74.60
47861;HTU21D;33620;52.340;5.984;2023-08-17T09:25:31;19.90;74.54
47861;HTU21D;33620;52.340;5.984;2023-08-17T09:27:57;19.98;74.70
47861;HTU21D;33620;52.340;5.984;2023-08-17T09:30:22;20.01;74.51
47861;HTU21D;33620;52.340;5.984;2023-08-17T09:32:48;20.04;74.15
47861;HTU21D;33620;52.340;5.984;2023-08-17T09:35:14;20.00;73.79
47861;HTU21D;33620;52.340;5.984;2023-08-17T09:37:40;20.01;74.02
47861;HTU21D;33620;52.340;5.984;2023-08-17T09:40:06;19.89;73.87
47861;HTU21D;33620;52.340;5.984;2023-08-17T09:42:35;19.87;74.21
47861;HTU21D;33620;52.340;5.984;2023-08-17T09:45:00;19.84;74.28
47861;HTU21D;33620;52.340;5.984;2023-08-17T09:47:27;19.85;74.64
47861;HTU21D;33620;52.340;5.984;2023-08-17T09:49:54;19.81;74.79
47861;HTU21D;33620;52.340;5.984;2023-08-17T09:52:23;19.81;74.71
47861;HTU21D;33620;52.340;5.984;2023-08-17T09:54:52;19.79;75.12
47861;HTU21D;33620;52.340;5.984;2023-08-17T09:57:19;19.79;75.36
47861;HTU21D;33620;52.340;5.984;2023-08-17T09:59:45;19.81;75.30
47861;HTU21D;33620;52.340;5.984;2023-08-17T10:02:20;19.81;74.99
47861;HTU21D;33620;52.340;5.984;2023-08-17T10:04:50;19.79;74.96
47861;HTU21D;33620;52.340;5.984;2023-08-17T10:07:19;19.75;75.12
47861;HTU21D;33620;52.340;5.984;2023-08-17T10:09:51;19.82;75.41
47861;HTU21D;33620;52.340;5.984;2023-08-17T10:12:18;19.82;75.10
47861;HTU21D;33620;52.340;5.984;2023-08-17T10:14:49;19.75;75.06
47861;HTU21D;33620;52.340;5.984;2023-08-17T10:17:25;19.76;75.61
47861;HTU21D;33620;52.340;5.984;2023-08-17T10:19:58;19.83;75.60
47861;HTU21D;33620;52.340;5.984;2023-08-17T10:25:02;19.86;75.31
47861;HTU21D;33620;52.340;5.984;2023-08-17T10:27:29;19.87;75.36
47861;HTU21D;33620;52.340;5.984;2023-08-17T10:29:55;19.88;75.29
47861;HTU21D;33620;52.340;5.984;2023-08-17T10:32:22;19.91;74.96
47861;HTU21D;33620;52.340;5.984;2023-08-17T10:34:49;19.90;75.17
47861;HTU21D;33620;52.340;5.984;2023-08-17T10:37:17;19.97;75.64
47861;HTU21D;33620;52.340;5.984;2023-08-17T10:39:47;20.02;75.54
47861;HTU21D;33620;52.340;5.984;2023-08-17T10:42:13;20.05;75.23
47861;HTU21D;33620;52.340;5.984;2023-08-17T10:44:45;20.02;74.87
47861;HTU21D;33620;52.340;5.984;2023-08-17T10:49:56;20.06;74.46
47861;HTU21D;33620;52.340;5.984;2023-08-17T10:52:44;20.07;74.87
47861;HTU21D;33620;52.340;5.984;2023-08-17T10:55:09;20.13;74.99
47861;HTU21D;33620;52.340;5.984;2023-08-17T10:57:39;20.14;74.68
47861;HTU21D;33620;52.340;5.984;2023-08-17T11:02:42;20.21;74.72
47861;HTU21D;33620;52.340;5.984;2023-08-17T11:05:08;20.20;74.60
47861;HTU21D;33620;52.340;5.984;2023-08-17T11:12:44;20.25;74.92
47861;HTU21D;33620;52.340;5.984;2023-08-17T11:15:09;20.24;74.72
47861;HTU21D;33620;52.340;5.984;2023-08-17T11:17:35;20.22;74.57
47861;HTU21D;33620;52.340;5.984;2023-08-17T11:20:00;20.21;74.72
47861;HTU21D;33620;52.340;5.984;2023-08-17T11:22:29;20.20;74.79
47861;HTU21D;33620;52.340;5.984;2023-08-17T11:24:55;20.24;74.76
47861;HTU21D;33620;52.340;5.984;2023-08-17T11:27:20;20.24;74.75
47861;HTU21D;33620;52.340;5.984;2023-08-17T11:29:46;20.27;75.10
47861;HTU21D;33620;52.340;5.984;2023-08-17T11:32:12;20.26;74.39
47861;HTU21D;33620;52.340;5.984;2023-08-17T11:34:38;20.31;74.44
47861;HTU21D;33620;52.340;5.984;2023-08-17T11:37:04;20.34;74.24
47861;HTU21D;33620;52.340;5.984;2023-08-17T11:39:33;20.40;74.12
47861;HTU21D;33620;52.340;5.984;2023-08-17T11:41:59;20.44;74.23
47861;HTU21D;33620;52.340;5.984;2023-08-17T11:44:25;20.46;73.93
47861;HTU21D;33620;52.340;5.984;2023-08-17T11:46:50;20.47;73.86
47861;HTU21D;33620;52.340;5.984;2023-08-17T11:49:17;20.47;73.73
47861;HTU21D;33620;52.340;5.984;2023-08-17T11:51:42;20.49;73.68
47861;HTU21D;33620;52.340;5.984;2023-08-17T11:54:08;20.54;73.93
47861;HTU21D;33620;52.340;5.984;2023-08-17T11:56:34;20.60;73.45
47861;HTU21D;33620;52.340;5.984;2023-08-17T11:59:08;20.64;73.62
47861;HTU21D;33620;52.340;5.984;2023-08-17T12:01:34;20.65;73.68
47861;HTU21D;33620;52.340;5.984;2023-08-17T12:04:02;20.75;73.77
47861;HTU21D;33620;52.340;5.984;2023-08-17T12:06:30;20.85;73.34
47861;HTU21D;33620;52.340;5.984;2023-08-17T12:08:55;20.91;73.83
47861;HTU21D;33620;52.340;5.984;2023-08-17T12:11:24;20.91;73.01
47861;HTU21D;33620;52.340;5.984;2023-08-17T12:13:51;20.95;73.18
47861;HTU21D;33620;52.340;5.984;2023-08-17T12:16:17;21.01;73.07
47861;HTU21D;33620;52.340;5.984;2023-08-17T12:18:50;20.94;72.62
47861;HTU21D;33620;52.340;5.984;2023-08-17T12:21:15;20.95;72.83
47861;HTU21D;33620;52.340;5.984;2023-08-17T12:23:41;20.93;72.64
47861;HTU21D;33620;52.340;5.984;2023-08-17T12:26:08;20.91;72.76
47861;HTU21D;33620;52.340;5.984;2023-08-17T12:28:33;20.92;72.77
47861;HTU21D;33620;52.340;5.984;2023-08-17T12:31:02;20.96;73.28
47861;HTU21D;33620;52.340;5.984;2023-08-17T12:33:28;21.00;73.35
47861;HTU21D;33620;52.340;5.984;2023-08-17T12:35:54;20.94;72.92
47861;HTU21D;33620;52.340;5.984;2023-08-17T12:38:21;20.95;73.15
47861;HTU21D;33620;52.340;5.984;2023-08-17T12:40:47;20.95;73.04
47861;HTU21D;33620;52.340;5.984;2023-08-17T12:43:12;20.96;73.19
47861;HTU21D;33620;52.340;5.984;2023-08-17T12:45:37;20.94;73.08
47861;HTU21D;33620;52.340;5.984;2023-08-17T12:48:03;20.98;73.48
47861;HTU21D;33620;52.340;5.984;2023-08-17T12:50:28;20.99;73.64
47861;HTU21D;33620;52.340;5.984;2023-08-17T12:52:53;21.01;73.91
47861;HTU21D;33620;52.340;5.984;2023-08-17T12:55:19;20.96;73.34
47861;HTU21D;33620;52.340;5.984;2023-08-17T12:57:44;20.94;73.28
47861;HTU21D;33620;52.340;5.984;2023-08-17T13:00:10;20.95;73.15
47861;HTU21D;33620;52.340;5.984;2023-08-17T13:02:35;20.96;73.48
47861;HTU21D;33620;52.340;5.984;2023-08-17T13:05:01;21.01;73.92
47861;HTU21D;33620;52.340;5.984;2023-08-17T13:07:27;21.04;74.15
47861;HTU21D;33620;52.340;5.984;2023-08-17T13:09:52;21.03;73.94
47861;HTU21D;33620;52.340;5.984;2023-08-17T13:12:17;21.03;74.05
47861;HTU21D;33620;52.340;5.984;2023-08-17T13:14:43;20.96;73.60
47861;HTU21D;33620;52.340;5.984;2023-08-17T13:17:08;20.95;73.47
47861;HTU21D;33620;52.340;5.984;2023-08-17T13:19:34;20.94;73.76
47861;HTU21D;33620;52.340;5.984;2023-08-17T13:22:00;20.95;73.78
47861;HTU21D;33620;52.340;5.984;2023-08-17T13:24:25;20.94;73.93
47861;HTU21D;33620;52.340;5.984;2023-08-17T13:26:51;20.93;74.13
47861;HTU21D;33620;52.340;5.984;2023-08-17T13:29:20;20.92;73.78
47861;HTU21D;33620;52.340;5.984;2023-08-17T13:31:47;20.90;74.27
47861;HTU21D;33620;52.340;5.984;2023-08-17T13:34:13;20.92;74.86
47861;HTU21D;33620;52.340;5.984;2023-08-17T13:36:38;20.90;74.53
47861;HTU21D;33620;52.340;5.984;2023-08-17T13:39:04;20.85;74.24
47861;HTU21D;33620;52.340;5.984;2023-08-17T13:41:29;20.86;74.25
47861;HTU21D;33620;52.340;5.984;2023-08-17T13:43:55;20.89;74.67
47861;HTU21D;33620;52.340;5.984;2023-08-17T13:46:22;20.92;74.58
47861;HTU21D;33620;52.340;5.984;2023-08-17T13:48:48;20.92;74.52
47861;HTU21D;33620;52.340;5.984;2023-08-17T13:51:13;20.92;74.54
47861;HTU21D;33620;52.340;5.984;2023-08-17T13:53:39;20.92;74.52
47861;HTU21D;33620;52.340;5.984;2023-08-17T13:56:05;20.96;74.81
47861;HTU21D;33620;52.340;5.984;2023-08-17T13:58:30;20.95;74.96
47861;HTU21D;33620;52.340;5.984;2023-08-17T14:00:56;20.96;74.89
47861;HTU21D;33620;52.340;5.984;2023-08-17T14:03:23;20.95;74.54
47861;HTU21D;33620;52.340;5.984;2023-08-17T14:05:48;20.98;74.97
47861;HTU21D;33620;52.340;5.984;2023-08-17T14:08:14;20.95;74.46
47861;HTU21D;33620;52.340;5.984;2023-08-17T14:10:39;20.98;74.58
47861;HTU21D;33620;52.340;5.984;2023-08-17T14:13:05;21.01;75.06
47861;HTU21D;33620;52.340;5.984;2023-08-17T14:15:30;21.03;74.86
47861;HTU21D;33620;52.340;5.984;2023-08-17T14:17:56;21.04;74.92
47861;HTU21D;33620;52.340;5.984;2023-08-17T14:20:21;21.07;75.05
47861;HTU21D;33620;52.340;5.984;2023-08-17T14:22:46;21.08;75.27
47861;HTU21D;33620;52.340;5.984;2023-08-17T14:25:13;21.04;74.67
47861;HTU21D;33620;52.340;5.984;2023-08-17T14:27:38;21.01;74.64
47861;HTU21D;33620;52.340;5.984;2023-08-17T14:30:04;20.96;74.66
47861;HTU21D;33620;52.340;5.984;2023-08-17T14:32:30;20.94;75.18
47861;HTU21D;33620;52.340;5.984;2023-08-17T14:34:55;20.92;75.25
47861;HTU21D;33620;52.340;5.984;2023-08-17T14:37:20;20.90;75.26
47861;HTU21D;33620;52.340;5.984;2023-08-17T14:39:46;20.93;75.63
47861;HTU21D;33620;52.340;5.984;2023-08-17T14:42:12;20.98;75.83
47861;HTU21D;33620;52.340;5.984;2023-08-17T14:44:37;20.96;75.96
47861;HTU21D;33620;52.340;5.984;2023-08-17T14:47:03;20.96;75.99
47861;HTU21D;33620;52.340;5.984;2023-08-17T14:49:29;20.98;76.10
47861;HTU21D;33620;52.340;5.984;2023-08-17T14:51:54;21.00;76.24
47861;HTU21D;33620;52.340;5.984;2023-08-17T14:54:20;21.03;76.47
47861;HTU21D;33620;52.340;5.984;2023-08-17T14:56:45;21.01;76.18
47861;HTU21D;33620;52.340;5.984;2023-08-17T14:59:11;21.04;76.27
47861;HTU21D;33620;52.340;5.984;2023-08-17T15:01:36;21.02;75.98
47861;HTU21D;33620;52.340;5.984;2023-08-17T15:04:02;21.00;75.76
47861;HTU21D;33620;52.340;5.984;2023-08-17T15:06:27;21.00;75.96
47861;HTU21D;33620;52.340;5.984;2023-08-17T15:08:53;20.98;76.18
47861;HTU21D;33620;52.340;5.984;2023-08-17T15:11:18;20.98;76.46
47861;HTU21D;33620;52.340;5.984;2023-08-17T15:13:44;20.94;76.72
47861;HTU21D;33620;52.340;5.984;2023-08-17T15:16:10;20.95;76.50
47861;HTU21D;33620;52.340;5.984;2023-08-17T15:18:35;20.90;76.40
47861;HTU21D;33620;52.340;5.984;2023-08-17T15:21:01;20.92;76.41
47861;HTU21D;33620;52.340;5.984;2023-08-17T15:23:26;20.89;76.41
47861;HTU21D;33620;52.340;5.984;2023-08-17T15:25:52;20.88;76.82
47861;HTU21D;33620;52.340;5.984;2023-08-17T15:28:17;20.90;76.66